sensor_id;sensor_type;location;lat;lon;timestamp;P1;durP1;ratioP1;P2;durP2;ratioP2
47539;SDS011;33280;52.152;21.052;2022-07-09T00:01:02;2.23;;;1.90;;
47539;SDS011;33280;52.152;21.052;2022-07-09T00:03:29;4.77;;;1.90;;
47539;SDS011;33280;52.152;21.052;2022-07-09T00:05:56;3.83;;;2.00;;
47539;SDS011;33280;52.152;21.052;2022-07-09T00:08:23;4.00;;;2.07;;
47539;SDS011;33280;52.152;21.052;2022-07-09T00:10:50;4.27;;;2.10;;
47539;SDS011;33280;52.152;21.052;2022-07-09T00:13:17;5.27;;;2.20;;
47539;SDS011;33280;52.152;21.052;2022-07-09T00:15:44;8.33;;;2.47;;
47539;SDS011;33280;52.152;21.052;2022-07-09T00:18:11;7.20;;;2.00;;
47539;SDS011;33280;52.152;21.052;2022-07-09T00:20:38;7.13;;;2.30;;
47539;SDS011;33280;52.152;21.052;2022-07-09T00:23:05;3.10;;;1.97;;
47539;SDS011;33280;52.152;21.052;2022-07-09T00:25:32;5.83;;;2.20;;
47539;SDS011;33280;52.152;21.052;2022-07-09T00:27:59;7.27;;;2.20;;
47539;SDS011;33280;52.152;21.052;2022-07-09T00:30:26;3.03;;;2.03;;
47539;SDS011;33280;52.152;21.052;2022-07-09T00:32:53;3.03;;;2.17;;
47539;SDS011;33280;52.152;21.052;2022-07-09T00:35:20;5.63;;;2.50;;
47539;SDS011;33280;52.152;21.052;2022-07-09T00:37:47;5.03;;;2.13;;
47539;SDS011;33280;52.152;21.052;2022-07-09T00:40:13;5.43;;;2.30;;
47539;SDS011;33280;52.152;21.052;2022-07-09T00:42:40;4.60;;;2.37;;
47539;SDS011;33280;52.152;21.052;2022-07-09T00:45:07;4.20;;;2.60;;
47539;SDS011;33280;52.152;21.052;2022-07-09T00:47:34;3.50;;;2.43;;
47539;SDS011;33280;52.152;21.052;2022-07-09T00:50:02;9.83;;;2.70;;
47539;SDS011;33280;52.152;21.052;2022-07-09T00:52:30;4.77;;;2.63;;
47539;SDS011;33280;52.152;21.052;2022-07-09T00:54:59;6.03;;;2.60;;
47539;SDS011;33280;52.152;21.052;2022-07-09T00:57:27;4.37;;;2.67;;
47539;SDS011;33280;52.152;21.052;2022-07-09T00:59:55;9.03;;;3.33;;
47539;SDS011;33280;52.152;21.052;2022-07-09T01:02:24;6.40;;;2.70;;
47539;SDS011;33280;52.152;21.052;2022-07-09T01:04:51;9.47;;;3.50;;
47539;SDS011;33280;52.152;21.052;2022-07-09T01:07:18;3.63;;;2.53;;
47539;SDS011;33280;52.152;21.052;2022-07-09T01:09:45;3.97;;;2.60;;
47539;SDS011;33280;52.152;21.052;2022-07-09T01:12:13;5.10;;;2.80;;
47539;SDS011;33280;52.152;21.052;2022-07-09T01:14:40;7.50;;;2.87;;
47539;SDS011;33280;52.152;21.052;2022-07-09T01:17:07;5.73;;;2.70;;
47539;SDS011;33280;52.152;21.052;2022-07-09T01:19:34;5.80;;;2.83;;
47539;SDS011;33280;52.152;21.052;2022-07-09T01:22:02;5.03;;;3.00;;
47539;SDS011;33280;52.152;21.052;2022-07-09T01:24:32;4.83;;;2.77;;
47539;SDS011;33280;52.152;21.052;2022-07-09T01:27:00;6.07;;;3.03;;
47539;SDS011;33280;52.152;21.052;2022-07-09T01:29:28;4.57;;;2.83;;
47539;SDS011;33280;52.152;21.052;2022-07-09T01:31:55;5.43;;;3.80;;
47539;SDS011;33280;52.152;21.052;2022-07-09T01:34:21;5.13;;;3.47;;
47539;SDS011;33280;52.152;21.052;2022-07-09T01:36:48;8.23;;;3.60;;
47539;SDS011;33280;52.152;21.052;2022-07-09T01:39:15;7.83;;;3.40;;
47539;SDS011;33280;52.152;21.052;2022-07-09T01:41:42;5.23;;;3.40;;
47539;SDS011;33280;52.152;21.052;2022-07-09T01:44:09;9.70;;;3.80;;
47539;SDS011;33280;52.152;21.052;2022-07-09T01:46:36;6.00;;;3.00;;
47539;SDS011;33280;52.152;21.052;2022-07-09T01:49:03;8.07;;;4.10;;
47539;SDS011;33280;52.152;21.052;2022-07-09T01:51:32;6.33;;;3.50;;
47539;SDS011;33280;52.152;21.052;2022-07-09T01:54:01;6.13;;;3.30;;
47539;SDS011;33280;52.152;21.052;2022-07-09T01:56:29;5.37;;;3.37;;
47539;SDS011;33280;52.152;21.052;2022-07-09T01:58:56;8.10;;;3.73;;
47539;SDS011;33280;52.152;21.052;2022-07-09T02:01:23;7.70;;;3.20;;
47539;SDS011;33280;52.152;21.052;2022-07-09T02:03:50;8.97;;;3.57;;
47539;SDS011;33280;52.152;21.052;2022-07-09T02:06:17;6.90;;;3.50;;
47539;SDS011;33280;52.152;21.052;2022-07-09T02:08:44;7.47;;;3.30;;
47539;SDS011;33280;52.152;21.052;2022-07-09T02:11:11;6.83;;;3.57;;
47539;SDS011;33280;52.152;21.052;2022-07-09T02:13:38;7.33;;;3.43;;
47539;SDS011;33280;52.152;21.052;2022-07-09T02:16:05;6.27;;;3.07;;
47539;SDS011;33280;52.152;21.052;2022-07-09T02:18:32;5.53;;;2.83;;
47539;SDS011;33280;52.152;21.052;2022-07-09T02:21:00;7.57;;;3.10;;
47539;SDS011;33280;52.152;21.052;2022-07-09T02:23:27;8.13;;;3.27;;
47539;SDS011;33280;52.152;21.052;2022-07-09T02:25:54;6.73;;;3.30;;
47539;SDS011;33280;52.152;21.052;2022-07-09T02:28:20;6.57;;;3.47;;
47539;SDS011;33280;52.152;21.052;2022-07-09T02:30:47;7.13;;;3.50;;
47539;SDS011;33280;52.152;21.052;2022-07-09T02:33:14;8.93;;;4.03;;
47539;SDS011;33280;52.152;21.052;2022-07-09T02:35:41;5.17;;;3.27;;
47539;SDS011;33280;52.152;21.052;2022-07-09T02:38:09;6.27;;;3.63;;
47539;SDS011;33280;52.152;21.052;2022-07-09T02:40:36;8.77;;;3.47;;
47539;SDS011;33280;52.152;21.052;2022-07-09T02:43:03;7.93;;;3.80;;
47539;SDS011;33280;52.152;21.052;2022-07-09T02:45:31;9.23;;;3.90;;
47539;SDS011;33280;52.152;21.052;2022-07-09T02:47:58;8.17;;;3.47;;
47539;SDS011;33280;52.152;21.052;2022-07-09T02:50:25;8.57;;;3.70;;
47539;SDS011;33280;52.152;21.052;2022-07-09T02:52:52;10.20;;;4.07;;
47539;SDS011;33280;52.152;21.052;2022-07-09T02:55:19;8.80;;;3.93;;
47539;SDS011;33280;52.152;21.052;2022-07-09T02:57:46;10.10;;;4.40;;
47539;SDS011;33280;52.152;21.052;2022-07-09T03:00:13;9.10;;;4.07;;
47539;SDS011;33280;52.152;21.052;2022-07-09T03:02:40;8.20;;;4.10;;
47539;SDS011;33280;52.152;21.052;2022-07-09T03:05:07;4.53;;;3.53;;
47539;SDS011;33280;52.152;21.052;2022-07-09T03:07:34;8.17;;;3.73;;
47539;SDS011;33280;52.152;21.052;2022-07-09T03:10:01;6.77;;;3.53;;
47539;SDS011;33280;52.152;21.052;2022-07-09T03:12:28;9.03;;;3.70;;
47539;SDS011;33280;52.152;21.052;2022-07-09T03:14:55;7.30;;;3.80;;
47539;SDS011;33280;52.152;21.052;2022-07-09T03:17:23;10.23;;;3.70;;
47539;SDS011;33280;52.152;21.052;2022-07-09T03:19:49;6.53;;;3.47;;
47539;SDS011;33280;52.152;21.052;2022-07-09T03:22:17;7.60;;;4.13;;
47539;SDS011;33280;52.152;21.052;2022-07-09T03:24:43;8.17;;;3.97;;
47539;SDS011;33280;52.152;21.052;2022-07-09T03:27:10;7.87;;;3.60;;
47539;SDS011;33280;52.152;21.052;2022-07-09T03:29:37;8.97;;;3.70;;
47539;SDS011;33280;52.152;21.052;2022-07-09T03:32:04;8.40;;;3.50;;
47539;SDS011;33280;52.152;21.052;2022-07-09T03:34:31;7.63;;;3.67;;
47539;SDS011;33280;52.152;21.052;2022-07-09T03:36:58;7.80;;;4.03;;
47539;SDS011;33280;52.152;21.052;2022-07-09T03:39:25;8.27;;;3.60;;
47539;SDS011;33280;52.152;21.052;2022-07-09T03:41:52;9.87;;;3.30;;
47539;SDS011;33280;52.152;21.052;2022-07-09T03:44:19;7.93;;;3.80;;
47539;SDS011;33280;52.152;21.052;2022-07-09T03:46:46;7.43;;;3.30;;
47539;SDS011;33280;52.152;21.052;2022-07-09T03:49:13;11.23;;;3.90;;
47539;SDS011;33280;52.152;21.052;2022-07-09T03:51:39;6.03;;;3.67;;
47539;SDS011;33280;52.152;21.052;2022-07-09T03:54:26;8.13;;;4.27;;
47539;SDS011;33280;52.152;21.052;2022-07-09T03:56:53;8.67;;;3.97;;
47539;SDS011;33280;52.152;21.052;2022-07-09T03:59:20;8.47;;;3.90;;
47539;SDS011;33280;52.152;21.052;2022-07-09T04:01:47;11.13;;;4.37;;
47539;SDS011;33280;52.152;21.052;2022-07-09T04:04:14;8.97;;;4.10;;
47539;SDS011;33280;52.152;21.052;2022-07-09T04:06:41;7.90;;;3.93;;
47539;SDS011;33280;52.152;21.052;2022-07-09T04:09:08;7.33;;;4.43;;
47539;SDS011;33280;52.152;21.052;2022-07-09T04:11:35;9.30;;;4.30;;
47539;SDS011;33280;52.152;21.052;2022-07-09T04:14:02;9.87;;;4.20;;
47539;SDS011;33280;52.152;21.052;2022-07-09T04:16:29;10.90;;;5.10;;
47539;SDS011;33280;52.152;21.052;2022-07-09T04:18:56;9.47;;;4.73;;
47539;SDS011;33280;52.152;21.052;2022-07-09T04:21:23;10.00;;;4.83;;
47539;SDS011;33280;52.152;21.052;2022-07-09T04:23:50;10.90;;;4.63;;
47539;SDS011;33280;52.152;21.052;2022-07-09T04:26:17;9.67;;;4.40;;
47539;SDS011;33280;52.152;21.052;2022-07-09T04:28:47;8.07;;;4.17;;
47539;SDS011;33280;52.152;21.052;2022-07-09T04:31:14;10.10;;;4.03;;
47539;SDS011;33280;52.152;21.052;2022-07-09T04:33:42;9.73;;;4.33;;
47539;SDS011;33280;52.152;21.052;2022-07-09T04:36:11;11.57;;;5.10;;
47539;SDS011;33280;52.152;21.052;2022-07-09T04:38:38;9.47;;;5.20;;
47539;SDS011;33280;52.152;21.052;2022-07-09T04:41:05;10.73;;;4.60;;
47539;SDS011;33280;52.152;21.052;2022-07-09T04:43:31;16.67;;;5.30;;
47539;SDS011;33280;52.152;21.052;2022-07-09T04:45:58;10.87;;;4.73;;
47539;SDS011;33280;52.152;21.052;2022-07-09T04:48:26;7.27;;;4.30;;
47539;SDS011;33280;52.152;21.052;2022-07-09T04:50:53;14.20;;;4.53;;
47539;SDS011;33280;52.152;21.052;2022-07-09T04:53:20;10.50;;;4.57;;
47539;SDS011;33280;52.152;21.052;2022-07-09T04:55:47;8.13;;;4.47;;
47539;SDS011;33280;52.152;21.052;2022-07-09T04:58:14;8.40;;;4.20;;
47539;SDS011;33280;52.152;21.052;2022-07-09T05:00:41;8.07;;;3.83;;
47539;SDS011;33280;52.152;21.052;2022-07-09T05:03:08;9.17;;;4.50;;
47539;SDS011;33280;52.152;21.052;2022-07-09T05:05:35;5.40;;;3.90;;
47539;SDS011;33280;52.152;21.052;2022-07-09T05:08:10;8.70;;;4.53;;
47539;SDS011;33280;52.152;21.052;2022-07-09T05:10:37;8.57;;;4.00;;
47539;SDS011;33280;52.152;21.052;2022-07-09T05:13:04;7.90;;;4.30;;
47539;SDS011;33280;52.152;21.052;2022-07-09T05:15:31;9.23;;;4.73;;
47539;SDS011;33280;52.152;21.052;2022-07-09T05:17:59;5.97;;;4.07;;
47539;SDS011;33280;52.152;21.052;2022-07-09T05:20:26;8.50;;;4.23;;
47539;SDS011;33280;52.152;21.052;2022-07-09T05:22:53;8.70;;;4.07;;
47539;SDS011;33280;52.152;21.052;2022-07-09T05:25:20;8.87;;;4.00;;
47539;SDS011;33280;52.152;21.052;2022-07-09T05:27:47;6.73;;;4.00;;
47539;SDS011;33280;52.152;21.052;2022-07-09T05:30:14;8.30;;;4.30;;
47539;SDS011;33280;52.152;21.052;2022-07-09T05:32:45;7.77;;;4.20;;
47539;SDS011;33280;52.152;21.052;2022-07-09T05:35:12;6.97;;;4.10;;
47539;SDS011;33280;52.152;21.052;2022-07-09T05:37:42;6.73;;;4.03;;
47539;SDS011;33280;52.152;21.052;2022-07-09T05:40:11;8.07;;;4.20;;
47539;SDS011;33280;52.152;21.052;2022-07-09T05:42:38;12.20;;;4.23;;
47539;SDS011;33280;52.152;21.052;2022-07-09T05:45:05;8.77;;;4.10;;
47539;SDS011;33280;52.152;21.052;2022-07-09T05:47:33;5.97;;;3.90;;
47539;SDS011;33280;52.152;21.052;2022-07-09T05:50:00;7.53;;;4.30;;
47539;SDS011;33280;52.152;21.052;2022-07-09T05:52:27;7.57;;;4.00;;
47539;SDS011;33280;52.152;21.052;2022-07-09T05:54:53;14.67;;;4.40;;
47539;SDS011;33280;52.152;21.052;2022-07-09T05:57:21;7.40;;;4.20;;
47539;SDS011;33280;52.152;21.052;2022-07-09T05:59:50;6.10;;;3.70;;
47539;SDS011;33280;52.152;21.052;2022-07-09T06:02:18;6.67;;;3.50;;
47539;SDS011;33280;52.152;21.052;2022-07-09T06:04:45;5.13;;;3.40;;
47539;SDS011;33280;52.152;21.052;2022-07-09T06:07:12;6.57;;;3.27;;
47539;SDS011;33280;52.152;21.052;2022-07-09T06:09:39;7.20;;;3.30;;
47539;SDS011;33280;52.152;21.052;2022-07-09T06:12:07;8.73;;;3.90;;
47539;SDS011;33280;52.152;21.052;2022-07-09T06:14:34;5.67;;;4.10;;
47539;SDS011;33280;52.152;21.052;2022-07-09T06:17:01;8.17;;;4.90;;
47539;SDS011;33280;52.152;21.052;2022-07-09T06:19:35;6.83;;;4.90;;
47539;SDS011;33280;52.152;21.052;2022-07-09T06:22:03;6.70;;;4.83;;
47539;SDS011;33280;52.152;21.052;2022-07-09T06:24:30;8.70;;;5.53;;
47539;SDS011;33280;52.152;21.052;2022-07-09T06:26:57;7.77;;;5.13;;
47539;SDS011;33280;52.152;21.052;2022-07-09T06:29:24;10.10;;;6.23;;
47539;SDS011;33280;52.152;21.052;2022-07-09T06:31:51;8.67;;;6.37;;
47539;SDS011;33280;52.152;21.052;2022-07-09T06:34:18;7.10;;;5.77;;
47539;SDS011;33280;52.152;21.052;2022-07-09T06:36:45;7.63;;;5.83;;
47539;SDS011;33280;52.152;21.052;2022-07-09T06:39:11;9.23;;;5.60;;
47539;SDS011;33280;52.152;21.052;2022-07-09T06:42:05;6.20;;;5.03;;
47539;SDS011;33280;52.152;21.052;2022-07-09T06:44:33;6.77;;;5.30;;
47539;SDS011;33280;52.152;21.052;2022-07-09T06:47:00;7.77;;;5.40;;
47539;SDS011;33280;52.152;21.052;2022-07-09T06:49:28;6.27;;;5.27;;
47539;SDS011;33280;52.152;21.052;2022-07-09T06:51:55;7.40;;;5.07;;
47539;SDS011;33280;52.152;21.052;2022-07-09T06:54:22;6.00;;;4.70;;
47539;SDS011;33280;52.152;21.052;2022-07-09T06:56:49;7.77;;;5.07;;
47539;SDS011;33280;52.152;21.052;2022-07-09T06:59:16;7.43;;;5.10;;
47539;SDS011;33280;52.152;21.052;2022-07-09T07:01:44;6.33;;;5.23;;
47539;SDS011;33280;52.152;21.052;2022-07-09T07:04:12;6.83;;;5.47;;
47539;SDS011;33280;52.152;21.052;2022-07-09T07:06:41;6.47;;;5.30;;
47539;SDS011;33280;52.152;21.052;2022-07-09T07:09:08;8.97;;;6.47;;
47539;SDS011;33280;52.152;21.052;2022-07-09T07:11:35;7.43;;;5.20;;
47539;SDS011;33280;52.152;21.052;2022-07-09T07:14:02;10.27;;;4.87;;
47539;SDS011;33280;52.152;21.052;2022-07-09T07:16:29;5.77;;;4.60;;
47539;SDS011;33280;52.152;21.052;2022-07-09T07:18:56;4.87;;;4.00;;
47539;SDS011;33280;52.152;21.052;2022-07-09T07:21:23;5.30;;;3.87;;
47539;SDS011;33280;52.152;21.052;2022-07-09T07:23:50;7.63;;;3.67;;
47539;SDS011;33280;52.152;21.052;2022-07-09T07:26:17;4.40;;;3.00;;
47539;SDS011;33280;52.152;21.052;2022-07-09T07:28:44;3.80;;;2.57;;
47539;SDS011;33280;52.152;21.052;2022-07-09T07:31:11;5.60;;;2.30;;
47539;SDS011;33280;52.152;21.052;2022-07-09T07:33:38;4.33;;;2.30;;
47539;SDS011;33280;52.152;21.052;2022-07-09T07:36:05;3.70;;;2.50;;
47539;SDS011;33280;52.152;21.052;2022-07-09T07:38:33;3.70;;;2.57;;
47539;SDS011;33280;52.152;21.052;2022-07-09T07:41:01;2.37;;;2.17;;
47539;SDS011;33280;52.152;21.052;2022-07-09T07:43:28;5.20;;;2.30;;
47539;SDS011;33280;52.152;21.052;2022-07-09T07:45:55;3.30;;;2.20;;
47539;SDS011;33280;52.152;21.052;2022-07-09T07:48:25;2.53;;;1.90;;
47539;SDS011;33280;52.152;21.052;2022-07-09T07:50:53;3.13;;;1.80;;
47539;SDS011;33280;52.152;21.052;2022-07-09T07:53:20;2.20;;;1.70;;
47539;SDS011;33280;52.152;21.052;2022-07-09T07:55:47;3.40;;;1.80;;
47539;SDS011;33280;52.152;21.052;2022-07-09T07:58:15;4.17;;;2.07;;
47539;SDS011;33280;52.152;21.052;2022-07-09T08:00:42;4.80;;;1.90;;
47539;SDS011;33280;52.152;21.052;2022-07-09T08:03:09;6.70;;;1.43;;
47539;SDS011;33280;52.152;21.052;2022-07-09T08:05:36;5.03;;;1.90;;
47539;SDS011;33280;52.152;21.052;2022-07-09T08:08:03;4.50;;;1.70;;
47539;SDS011;33280;52.152;21.052;2022-07-09T08:10:30;3.97;;;1.60;;
47539;SDS011;33280;52.152;21.052;2022-07-09T08:13:01;2.93;;;1.40;;
47539;SDS011;33280;52.152;21.052;2022-07-09T08:15:28;3.33;;;1.70;;
47539;SDS011;33280;52.152;21.052;2022-07-09T08:17:55;5.80;;;1.93;;
47539;SDS011;33280;52.152;21.052;2022-07-09T08:20:22;3.90;;;1.70;;
47539;SDS011;33280;52.152;21.052;2022-07-09T08:22:49;3.70;;;1.73;;
47539;SDS011;33280;52.152;21.052;2022-07-09T08:25:16;3.37;;;1.60;;
47539;SDS011;33280;52.152;21.052;2022-07-09T08:27:43;3.67;;;1.40;;
47539;SDS011;33280;52.152;21.052;2022-07-09T08:30:10;3.97;;;1.30;;
47539;SDS011;33280;52.152;21.052;2022-07-09T08:32:37;2.23;;;1.40;;
47539;SDS011;33280;52.152;21.052;2022-07-09T08:35:05;1.87;;;1.10;;
47539;SDS011;33280;52.152;21.052;2022-07-09T08:37:32;3.10;;;1.20;;
47539;SDS011;33280;52.152;21.052;2022-07-09T08:40:00;2.27;;;1.30;;
47539;SDS011;33280;52.152;21.052;2022-07-09T08:42:27;3.97;;;1.30;;
47539;SDS011;33280;52.152;21.052;2022-07-09T08:44:54;3.93;;;1.30;;
47539;SDS011;33280;52.152;21.052;2022-07-09T08:47:22;2.63;;;1.40;;
47539;SDS011;33280;52.152;21.052;2022-07-09T08:49:50;3.03;;;1.23;;
47539;SDS011;33280;52.152;21.052;2022-07-09T08:52:23;5.50;;;1.67;;
47539;SDS011;33280;52.152;21.052;2022-07-09T08:54:52;3.65;;;1.20;;
47539;SDS011;33280;52.152;21.052;2022-07-09T08:57:24;4.05;;;1.10;;
47539;SDS011;33280;52.152;21.052;2022-07-09T08:59:51;2.75;;;1.10;;
47539;SDS011;33280;52.152;21.052;2022-07-09T09:02:18;3.08;;;1.30;;
47539;SDS011;33280;52.152;21.052;2022-07-09T09:04:46;1.80;;;1.00;;
47539;SDS011;33280;52.152;21.052;2022-07-09T09:07:17;2.95;;;1.25;;
47539;SDS011;33280;52.152;21.052;2022-07-09T09:09:45;1.58;;;1.02;;
47539;SDS011;33280;52.152;21.052;2022-07-09T09:12:12;5.47;;;1.35;;
47539;SDS011;33280;52.152;21.052;2022-07-09T09:14:49;2.72;;;1.10;;
47539;SDS011;33280;52.152;21.052;2022-07-09T09:17:16;5.88;;;1.45;;
47539;SDS011;33280;52.152;21.052;2022-07-09T09:19:43;3.55;;;1.50;;
47539;SDS011;33280;52.152;21.052;2022-07-09T09:22:13;2.13;;;1.35;;
47539;SDS011;33280;52.152;21.052;2022-07-09T09:24:41;3.95;;;1.10;;
47539;SDS011;33280;52.152;21.052;2022-07-09T09:27:08;2.05;;;1.23;;
47539;SDS011;33280;52.152;21.052;2022-07-09T09:29:35;4.25;;;1.52;;
47539;SDS011;33280;52.152;21.052;2022-07-09T09:32:09;4.60;;;1.65;;
47539;SDS011;33280;52.152;21.052;2022-07-09T09:34:40;2.28;;;1.15;;
47539;SDS011;33280;52.152;21.052;2022-07-09T09:37:24;2.80;;;1.40;;
47539;SDS011;33280;52.152;21.052;2022-07-09T09:39:55;2.97;;;1.50;;
47539;SDS011;33280;52.152;21.052;2022-07-09T09:42:23;1.80;;;1.35;;
47539;SDS011;33280;52.152;21.052;2022-07-09T09:44:51;4.65;;;1.40;;
47539;SDS011;33280;52.152;21.052;2022-07-09T09:47:21;2.10;;;1.30;;
47539;SDS011;33280;52.152;21.052;2022-07-09T09:49:51;3.60;;;1.40;;
47539;SDS011;33280;52.152;21.052;2022-07-09T09:52:21;3.87;;;1.33;;
47539;SDS011;33280;52.152;21.052;2022-07-09T09:54:48;6.60;;;1.40;;
47539;SDS011;33280;52.152;21.052;2022-07-09T09:57:17;4.30;;;1.20;;
47539;SDS011;33280;52.152;21.052;2022-07-09T09:59:45;6.37;;;1.57;;
47539;SDS011;33280;52.152;21.052;2022-07-09T10:02:12;4.33;;;1.17;;
47539;SDS011;33280;52.152;21.052;2022-07-09T10:04:43;4.80;;;1.50;;
47539;SDS011;33280;52.152;21.052;2022-07-09T10:07:11;3.43;;;1.50;;
47539;SDS011;33280;52.152;21.052;2022-07-09T10:09:39;3.53;;;1.20;;
47539;SDS011;33280;52.152;21.052;2022-07-09T10:12:07;1.87;;;1.30;;
47539;SDS011;33280;52.152;21.052;2022-07-09T10:14:37;5.77;;;1.70;;
47539;SDS011;33280;52.152;21.052;2022-07-09T10:17:09;5.40;;;1.60;;
47539;SDS011;33280;52.152;21.052;2022-07-09T10:19:37;5.73;;;1.63;;
47539;SDS011;33280;52.152;21.052;2022-07-09T10:22:04;2.80;;;1.40;;
47539;SDS011;33280;52.152;21.052;2022-07-09T10:24:32;4.68;;;1.73;;
47539;SDS011;33280;52.152;21.052;2022-07-09T10:29:35;4.78;;;1.77;;
47539;SDS011;33280;52.152;21.052;2022-07-09T10:32:03;2.30;;;1.60;;
47539;SDS011;33280;52.152;21.052;2022-07-09T10:37:42;2.63;;;1.60;;
47539;SDS011;33280;52.152;21.052;2022-07-09T10:40:14;3.42;;;1.25;;
47539;SDS011;33280;52.152;21.052;2022-07-09T10:42:56;1.90;;;1.20;;
47539;SDS011;33280;52.152;21.052;2022-07-09T10:45:25;2.33;;;1.20;;
47539;SDS011;33280;52.152;21.052;2022-07-09T10:48:02;2.80;;;1.20;;
47539;SDS011;33280;52.152;21.052;2022-07-09T10:50:31;4.20;;;1.50;;
47539;SDS011;33280;52.152;21.052;2022-07-09T10:52:59;2.78;;;1.50;;
47539;SDS011;33280;52.152;21.052;2022-07-09T10:55:26;2.92;;;1.38;;
47539;SDS011;33280;52.152;21.052;2022-07-09T10:57:54;3.03;;;1.30;;
47539;SDS011;33280;52.152;21.052;2022-07-09T11:00:22;4.65;;;1.50;;
47539;SDS011;33280;52.152;21.052;2022-07-09T11:03:00;4.93;;;1.80;;
47539;SDS011;33280;52.152;21.052;2022-07-09T11:05:33;3.88;;;1.60;;
47539;SDS011;33280;52.152;21.052;2022-07-09T11:08:09;5.93;;;1.80;;
47539;SDS011;33280;52.152;21.052;2022-07-09T11:10:37;3.90;;;1.52;;
47539;SDS011;33280;52.152;21.052;2022-07-09T11:13:06;7.85;;;1.70;;
47539;SDS011;33280;52.152;21.052;2022-07-09T11:15:35;3.22;;;1.60;;
47539;SDS011;33280;52.152;21.052;2022-07-09T11:18:07;4.93;;;1.52;;
47539;SDS011;33280;52.152;21.052;2022-07-09T11:20:39;3.15;;;1.63;;
47539;SDS011;33280;52.152;21.052;2022-07-09T11:23:12;2.38;;;1.33;;
47539;SDS011;33280;52.152;21.052;2022-07-09T11:25:41;4.35;;;1.30;;
47539;SDS011;33280;52.152;21.052;2022-07-09T11:28:09;5.35;;;1.63;;
47539;SDS011;33280;52.152;21.052;2022-07-09T11:30:58;5.38;;;1.63;;
47539;SDS011;33280;52.152;21.052;2022-07-09T11:33:26;4.88;;;1.58;;
47539;SDS011;33280;52.152;21.052;2022-07-09T11:35:53;2.88;;;1.20;;
47539;SDS011;33280;52.152;21.052;2022-07-09T11:38:20;2.90;;;1.38;;
47539;SDS011;33280;52.152;21.052;2022-07-09T11:40:47;4.82;;;1.58;;
47539;SDS011;33280;52.152;21.052;2022-07-09T11:43:14;5.63;;;1.40;;
47539;SDS011;33280;52.152;21.052;2022-07-09T11:45:51;9.23;;;1.30;;
47539;SDS011;33280;52.152;21.052;2022-07-09T11:48:19;3.60;;;1.40;;
47539;SDS011;33280;52.152;21.052;2022-07-09T11:50:46;2.58;;;1.30;;
47539;SDS011;33280;52.152;21.052;2022-07-09T11:53:22;3.28;;;1.00;;
47539;SDS011;33280;52.152;21.052;2022-07-09T11:56:02;2.22;;;1.15;;
47539;SDS011;33280;52.152;21.052;2022-07-09T11:58:32;1.90;;;1.10;;
47539;SDS011;33280;52.152;21.052;2022-07-09T12:01:00;4.38;;;1.25;;
47539;SDS011;33280;52.152;21.052;2022-07-09T12:03:27;3.03;;;1.20;;
47539;SDS011;33280;52.152;21.052;2022-07-09T12:05:58;2.40;;;1.20;;
47539;SDS011;33280;52.152;21.052;2022-07-09T12:08:26;3.28;;;1.30;;
47539;SDS011;33280;52.152;21.052;2022-07-09T12:10:55;3.75;;;1.27;;
47539;SDS011;33280;52.152;21.052;2022-07-09T12:13:22;3.83;;;1.70;;
47539;SDS011;33280;52.152;21.052;2022-07-09T12:15:49;4.00;;;1.30;;
47539;SDS011;33280;52.152;21.052;2022-07-09T12:18:16;3.65;;;1.33;;
47539;SDS011;33280;52.152;21.052;2022-07-09T12:20:43;2.30;;;1.00;;
47539;SDS011;33280;52.152;21.052;2022-07-09T12:23:10;4.32;;;1.35;;
47539;SDS011;33280;52.152;21.052;2022-07-09T12:25:37;3.97;;;1.35;;
47539;SDS011;33280;52.152;21.052;2022-07-09T12:28:06;3.85;;;1.30;;
47539;SDS011;33280;52.152;21.052;2022-07-09T12:30:33;4.22;;;1.60;;
47539;SDS011;33280;52.152;21.052;2022-07-09T12:32:59;3.05;;;1.38;;
47539;SDS011;33280;52.152;21.052;2022-07-09T12:35:26;2.80;;;1.20;;
47539;SDS011;33280;52.152;21.052;2022-07-09T12:37:54;2.70;;;1.48;;
47539;SDS011;33280;52.152;21.052;2022-07-09T12:40:22;1.87;;;1.37;;
47539;SDS011;33280;52.152;21.052;2022-07-09T12:42:49;3.40;;;1.58;;
47539;SDS011;33280;52.152;21.052;2022-07-09T12:45:16;3.33;;;1.45;;
47539;SDS011;33280;52.152;21.052;2022-07-09T12:47:43;3.87;;;1.50;;
47539;SDS011;33280;52.152;21.052;2022-07-09T12:50:10;2.47;;;1.30;;
47539;SDS011;33280;52.152;21.052;2022-07-09T12:52:38;2.70;;;1.33;;
47539;SDS011;33280;52.152;21.052;2022-07-09T12:55:05;2.67;;;1.43;;
47539;SDS011;33280;52.152;21.052;2022-07-09T12:57:34;2.27;;;1.30;;
47539;SDS011;33280;52.152;21.052;2022-07-09T13:00:00;3.13;;;1.57;;
47539;SDS011;33280;52.152;21.052;2022-07-09T13:02:28;2.87;;;1.50;;
47539;SDS011;33280;52.152;21.052;2022-07-09T13:04:55;3.40;;;1.53;;
47539;SDS011;33280;52.152;21.052;2022-07-09T13:07:23;2.17;;;1.30;;
47539;SDS011;33280;52.152;21.052;2022-07-09T13:09:50;4.00;;;1.38;;
47539;SDS011;33280;52.152;21.052;2022-07-09T13:12:18;5.05;;;1.55;;
47539;SDS011;33280;52.152;21.052;2022-07-09T13:14:45;2.47;;;1.60;;
47539;SDS011;33280;52.152;21.052;2022-07-09T13:17:12;2.80;;;1.30;;
47539;SDS011;33280;52.152;21.052;2022-07-09T13:19:58;3.40;;;1.50;;
47539;SDS011;33280;52.152;21.052;2022-07-09T13:22:25;3.58;;;1.92;;
47539;SDS011;33280;52.152;21.052;2022-07-09T13:24:53;2.92;;;1.60;;
47539;SDS011;33280;52.152;21.052;2022-07-09T13:27:20;3.80;;;1.70;;
47539;SDS011;33280;52.152;21.052;2022-07-09T13:29:47;5.80;;;1.70;;
47539;SDS011;33280;52.152;21.052;2022-07-09T13:32:14;2.47;;;1.60;;
47539;SDS011;33280;52.152;21.052;2022-07-09T13:34:51;1.85;;;1.30;;
47539;SDS011;33280;52.152;21.052;2022-07-09T13:37:18;2.92;;;1.70;;
47539;SDS011;33280;52.152;21.052;2022-07-09T13:39:46;3.40;;;1.60;;
47539;SDS011;33280;52.152;21.052;2022-07-09T13:42:13;7.97;;;2.25;;
47539;SDS011;33280;52.152;21.052;2022-07-09T13:44:40;5.60;;;2.10;;
47539;SDS011;33280;52.152;21.052;2022-07-09T13:47:07;4.20;;;2.20;;
47539;SDS011;33280;52.152;21.052;2022-07-09T13:49:34;5.57;;;2.37;;
47539;SDS011;33280;52.152;21.052;2022-07-09T13:52:01;2.72;;;2.10;;
47539;SDS011;33280;52.152;21.052;2022-07-09T13:54:28;3.27;;;2.03;;
47539;SDS011;33280;52.152;21.052;2022-07-09T13:56:55;5.70;;;2.37;;
47539;SDS011;33280;52.152;21.052;2022-07-09T13:59:22;5.37;;;2.73;;
47539;SDS011;33280;52.152;21.052;2022-07-09T14:01:49;3.90;;;2.60;;
47539;SDS011;33280;52.152;21.052;2022-07-09T14:04:16;4.27;;;2.47;;
47539;SDS011;33280;52.152;21.052;2022-07-09T14:06:44;5.33;;;2.63;;
47539;SDS011;33280;52.152;21.052;2022-07-09T14:09:13;6.23;;;2.40;;
47539;SDS011;33280;52.152;21.052;2022-07-09T14:11:43;5.13;;;2.50;;
47539;SDS011;33280;52.152;21.052;2022-07-09T14:14:10;4.40;;;2.20;;
47539;SDS011;33280;52.152;21.052;2022-07-09T14:16:37;3.93;;;2.43;;
47539;SDS011;33280;52.152;21.052;2022-07-09T14:19:04;4.27;;;2.17;;
47539;SDS011;33280;52.152;21.052;2022-07-09T14:21:31;5.80;;;2.30;;
47539;SDS011;33280;52.152;21.052;2022-07-09T14:23:58;3.43;;;2.00;;
47539;SDS011;33280;52.152;21.052;2022-07-09T14:26:25;6.03;;;2.20;;
47539;SDS011;33280;52.152;21.052;2022-07-09T14:28:52;4.00;;;2.07;;
47539;SDS011;33280;52.152;21.052;2022-07-09T14:31:18;3.53;;;2.07;;
47539;SDS011;33280;52.152;21.052;2022-07-09T14:33:45;2.60;;;1.90;;
47539;SDS011;33280;52.152;21.052;2022-07-09T14:36:12;4.00;;;2.13;;
47539;SDS011;33280;52.152;21.052;2022-07-09T14:38:40;2.93;;;1.80;;
47539;SDS011;33280;52.152;21.052;2022-07-09T14:41:07;2.97;;;1.90;;
47539;SDS011;33280;52.152;21.052;2022-07-09T14:43:34;4.00;;;1.70;;